createdAt,value
2019-04-05T00:02:04.269Z,95932.78
2019-04-05T00:04:31.666Z,95933.89
2019-04-05T00:06:59.085Z,95931.91
2019-04-05T00:09:26.493Z,95932.13
2019-04-05T00:11:53.895Z,95931.85
2019-04-05T00:14:21.309Z,95936.55
2019-04-05T00:16:48.726Z,95937.12
2019-04-05T00:19:16.129Z,95931.23
2019-04-05T00:21:43.535Z,95936.75
2019-04-05T00:24:10.936Z,95938.36
2019-04-05T00:26:38.346Z,95932.51
2019-04-05T00:29:05.738Z,95936.36
2019-04-05T00:31:33.153Z,95942.52
2019-04-05T00:34:00.556Z,95935.80
2019-04-05T00:36:28.012Z,95936.30
2019-04-05T00:38:55.422Z,95922.08
2019-04-05T00:41:22.823Z,95916.33
2019-04-05T00:43:50.219Z,95916.14
2019-04-05T00:46:17.647Z,95911.83
2019-04-05T00:48:45.032Z,95916.41
2019-04-05T00:51:12.426Z,95915.56
2019-04-05T00:53:39.832Z,95916.20
2019-04-05T00:56:07.250Z,95912.97
2019-04-05T00:58:34.650Z,95919.65
2019-04-05T01:01:02.068Z,95918.30
2019-04-05T01:03:29.519Z,95914.16
2019-04-05T01:05:56.931Z,95925.58
2019-04-05T01:08:24.337Z,95925.12
2019-04-05T01:10:51.768Z,95927.45
2019-04-05T01:13:19.163Z,95926.28
2019-04-05T01:15:46.559Z,95931.98
2019-04-05T01:18:13.963Z,95931.52
2019-04-05T01:23:08.072Z,95927.78
2019-04-05T01:25:35.456Z,95933.05
2019-04-05T01:28:02.870Z,95932.52
2019-04-05T01:30:30.274Z,95925.48
2019-04-05T01:32:57.696Z,95921.82
2019-04-05T01:35:25.154Z,95919.38
2019-04-05T01:37:52.546Z,95921.97
2019-04-05T01:40:19.958Z,95922.56
2019-04-05T01:42:47.357Z,95924.09
2019-04-05T01:45:14.787Z,95926.41
2019-04-05T01:47:42.214Z,95927.45
2019-04-05T01:50:09.607Z,95920.63
2019-04-05T01:52:36.990Z,95924.75
2019-04-05T01:55:05.235Z,95926.45
2019-04-05T01:57:32.678Z,95928.91
2019-04-05T02:00:00.132Z,95922.39
2019-04-05T02:02:27.536Z,95925.76
2019-04-05T02:04:54.961Z,95913.64
2019-04-05T02:07:22.397Z,95918.38
2019-04-05T02:09:49.795Z,95923.05
2019-04-05T02:12:17.211Z,95921.66
2019-04-05T02:14:44.614Z,95924.46
2019-04-05T02:17:12.014Z,95928.64
2019-04-05T02:19:39.422Z,95926.91
2019-04-05T02:22:06.831Z,95933.44
2019-04-05T02:24:34.254Z,95935.84
2019-04-05T02:27:01.653Z,95935.66
2019-04-05T02:29:29.047Z,95931.76
2019-04-05T02:31:56.452Z,95922.57
2019-04-05T02:34:23.893Z,95916.55
2019-04-05T02:36:51.288Z,95926.38
2019-04-05T02:39:18.690Z,95917.55
2019-04-05T02:41:46.111Z,95914.36
2019-04-05T02:44:13.519Z,95912.80
2019-04-05T02:46:40.928Z,95914.72
2019-04-05T02:49:08.329Z,95908.70
2019-04-05T02:51:36.324Z,95900.88
2019-04-05T02:54:03.733Z,95896.73
2019-04-05T02:56:31.210Z,95903.97
2019-04-05T02:58:58.648Z,95905.06
2019-04-05T03:01:26.054Z,95898.16
2019-04-05T03:03:53.455Z,95904.67
2019-04-05T03:06:20.851Z,95901.92
2019-04-05T03:08:48.303Z,95900.89
2019-04-05T03:11:15.712Z,95900.48
2019-04-05T03:13:43.940Z,95900.16
2019-04-05T03:16:12.270Z,95896.09
2019-04-05T03:18:39.678Z,95894.69
2019-04-05T03:21:07.078Z,95888.56
2019-04-05T03:23:34.492Z,95884.31
2019-04-05T03:26:01.892Z,95878.75
2019-04-05T03:28:29.300Z,95866.26
2019-04-05T03:30:56.701Z,95863.66
2019-04-05T03:33:24.131Z,95860.14
2019-04-05T03:35:51.587Z,95867.55
2019-04-05T03:38:18.986Z,95877.98
2019-04-05T03:40:46.399Z,95870.80
2019-04-05T03:43:13.811Z,95874.92
2019-04-05T03:45:41.247Z,95876.50
2019-04-05T03:48:08.646Z,95876.36
2019-04-05T03:50:36.080Z,95866.98
2019-04-05T03:53:03.490Z,95869.66
2019-04-05T03:55:30.889Z,95862.13
2019-04-05T03:57:58.321Z,95868.20
2019-04-05T04:00:25.737Z,95860.30
2019-04-05T04:02:53.142Z,95860.27
2019-04-05T04:05:20.576Z,95861.08
2019-04-05T04:07:47.971Z,95867.50
2019-04-05T04:10:15.390Z,95866.16
2019-04-05T04:12:42.783Z,95867.59
2019-04-05T04:15:14.180Z,95870.44
2019-04-05T04:17:40.482Z,95864.17
2019-04-05T04:20:08.076Z,95865.66
2019-04-05T04:22:35.494Z,95872.16
2019-04-05T04:25:02.904Z,95872.35
2019-04-05T04:27:30.318Z,95864.98
2019-04-05T04:30:00.341Z,95869.75
2019-04-05T04:32:25.241Z,95865.80
2019-04-05T04:34:52.641Z,95870.98
2019-04-05T04:37:20.044Z,95866.22
2019-04-05T04:39:47.435Z,95865.80
2019-04-05T04:42:14.858Z,95867.77
2019-04-05T04:44:42.322Z,95868.05
2019-04-05T04:47:09.721Z,95871.52
2019-04-05T04:49:37.156Z,95880.34
2019-04-05T04:52:05.132Z,95865.92
2019-04-05T04:54:32.544Z,95865.82
2019-04-05T04:56:59.940Z,95865.33
2019-04-05T04:59:27.343Z,95867.72
2019-04-05T05:01:54.760Z,95873.77
2019-04-05T05:04:22.193Z,95865.45
2019-04-05T05:06:49.660Z,95875.55
2019-04-05T05:09:17.068Z,95873.50
2019-04-05T05:11:44.465Z,95878.42
2019-04-05T05:14:11.888Z,95870.83
2019-04-05T05:16:39.307Z,95874.73
2019-04-05T05:19:06.726Z,95877.52
2019-04-05T05:21:34.149Z,95886.50
2019-04-05T05:24:01.563Z,95886.69
2019-04-05T05:26:28.971Z,95884.16
2019-04-05T05:28:56.365Z,95884.02
2019-04-05T05:31:23.767Z,95888.39
2019-04-05T05:33:51.176Z,95884.27
2019-04-05T05:36:18.582Z,95889.52
2019-04-05T05:38:46.175Z,95878.80
2019-04-05T05:41:13.675Z,95884.05
2019-04-05T05:43:41.090Z,95889.27
2019-04-05T05:46:08.559Z,95889.27
2019-04-05T05:48:35.964Z,95892.09
2019-04-05T05:51:03.396Z,95888.22
2019-04-05T05:53:30.787Z,95898.48
2019-04-05T05:55:58.184Z,95893.67
2019-04-05T05:58:26.383Z,95899.55
2019-04-05T06:00:52.999Z,95900.16
2019-04-05T06:03:20.478Z,95911.04
2019-04-05T06:05:47.899Z,95904.12
2019-04-05T06:08:15.454Z,95906.91
2019-04-05T06:10:42.844Z,95898.87
2019-04-05T06:13:10.265Z,95904.05
2019-04-05T06:15:37.814Z,95903.41
2019-04-05T06:20:38.988Z,95903.28
2019-04-05T06:23:06.433Z,95902.88
2019-04-05T06:25:33.830Z,95907.82
2019-04-05T06:28:01.232Z,95907.47
2019-04-05T06:30:28.986Z,95900.43
2019-04-05T06:32:56.139Z,95897.91
2019-04-05T06:35:23.536Z,95908.27
2019-04-05T06:37:50.936Z,95898.20
2019-04-05T06:40:18.516Z,95907.83
2019-04-05T06:42:45.916Z,95901.23
2019-04-05T06:45:13.524Z,95901.50
2019-04-05T06:47:40.911Z,95907.57
2019-04-05T06:50:08.315Z,95904.53
2019-04-05T06:52:35.709Z,95900.46
2019-04-05T06:55:03.106Z,95900.66
2019-04-05T06:57:30.511Z,95895.32
2019-04-05T06:59:57.904Z,95891.48
2019-04-05T07:02:25.317Z,95889.30
2019-04-05T07:04:52.711Z,95891.89
2019-04-05T07:07:20.129Z,95891.13
2019-04-05T07:09:47.674Z,95886.45
2019-04-05T07:12:15.107Z,95886.69
2019-04-05T07:14:42.616Z,95875.38
2019-04-05T07:17:10.028Z,95884.47
2019-04-05T07:19:37.450Z,95877.09
2019-04-05T07:22:04.857Z,95882.64
2019-04-05T07:24:32.257Z,95875.94
2019-04-05T07:26:59.957Z,95880.81
2019-04-05T07:29:27.440Z,95875.82
2019-04-05T07:31:55.365Z,95872.92
2019-04-05T07:34:22.761Z,95876.29
2019-04-05T07:36:50.180Z,95879.48
2019-04-05T07:39:17.634Z,95882.91
2019-04-05T07:41:45.228Z,95881.55
2019-04-05T07:44:12.680Z,95880.92
2019-04-05T07:46:40.202Z,95878.36
2019-04-05T07:49:07.643Z,95883.29
2019-04-05T07:51:35.079Z,95870.03
2019-04-05T07:54:02.475Z,95878.27
2019-04-05T07:56:29.971Z,95879.68
2019-04-05T07:58:57.447Z,95883.63
2019-04-05T08:01:24.852Z,95883.97
2019-04-05T08:03:53.174Z,95882.92
2019-04-05T08:06:20.590Z,95873.96
2019-04-05T08:08:58.768Z,95873.97
2019-04-05T08:11:26.285Z,95866.34
2019-04-05T08:13:53.693Z,95870.92
2019-04-05T08:16:21.099Z,95866.88
2019-04-05T08:18:57.505Z,95873.46
2019-04-05T08:21:16.054Z,95872.13
2019-04-05T08:23:44.287Z,95869.65
2019-04-05T08:26:11.743Z,95869.55
2019-04-05T08:28:39.147Z,95869.91
2019-04-05T08:31:10.559Z,95873.87
2019-04-05T08:33:36.260Z,95879.19
2019-04-05T08:36:00.654Z,95876.25
2019-04-05T08:38:28.108Z,95877.73
2019-04-05T08:40:55.608Z,95876.92
2019-04-05T08:43:23.014Z,95881.98
2019-04-05T08:45:49.985Z,95891.30
2019-04-05T08:48:16.944Z,95881.83
2019-04-05T08:50:43.876Z,95875.64
2019-04-05T08:53:10.818Z,95876.48
2019-04-05T08:55:37.762Z,95875.72
2019-04-05T08:58:04.709Z,95869.07
2019-04-05T09:00:31.652Z,95874.05
2019-04-05T09:02:58.624Z,95873.30
2019-04-05T09:05:25.572Z,95871.86
2019-04-05T09:07:52.576Z,95879.12
2019-04-05T09:10:19.571Z,95872.69
2019-04-05T09:12:46.474Z,95873.82
2019-04-05T09:15:13.428Z,95864.92
2019-04-05T09:17:40.389Z,95873.99
2019-04-05T09:20:07.318Z,95871.97
2019-04-05T09:22:34.332Z,95874.97
2019-04-05T09:25:01.291Z,95875.05
2019-04-05T09:27:28.239Z,95884.77
2019-04-05T09:29:55.190Z,95885.96
2019-04-05T09:32:22.211Z,95890.52
2019-04-05T09:34:49.239Z,95900.41
2019-04-05T09:37:16.234Z,95892.72
2019-04-05T09:39:43.212Z,95892.63
2019-04-05T09:42:10.159Z,95895.30
2019-04-05T09:44:37.217Z,95894.20
2019-04-05T09:47:04.184Z,95889.48
2019-04-05T09:49:37.111Z,95889.58
2019-04-05T09:51:58.093Z,95875.41
2019-04-05T09:54:25.420Z,95877.44
2019-04-05T09:56:52.359Z,95877.46
2019-04-05T09:59:20.334Z,95875.67
2019-04-05T10:01:47.405Z,95876.76
2019-04-05T10:04:14.351Z,95884.23
2019-04-05T10:06:41.361Z,95878.34
2019-04-05T10:09:08.314Z,95877.55
2019-04-05T10:11:35.263Z,95880.59
2019-04-05T10:14:02.253Z,95883.73
2019-04-05T10:16:29.207Z,95874.86
2019-04-05T10:18:56.168Z,95879.58
2019-04-05T10:21:23.138Z,95879.66
2019-04-05T10:23:50.230Z,95891.70
2019-04-05T10:26:17.167Z,95886.54
2019-04-05T10:28:44.137Z,95888.33
2019-04-05T10:31:11.090Z,95889.45
2019-04-05T10:33:38.028Z,95884.31
2019-04-05T10:36:04.966Z,95884.15
2019-04-05T10:38:31.948Z,95880.59
2019-04-05T10:40:58.891Z,95879.61
2019-04-05T10:43:25.899Z,95880.38
2019-04-05T10:45:52.858Z,95878.73
2019-04-05T10:48:19.841Z,95881.56
2019-04-05T10:50:46.793Z,95880.88
2019-04-05T10:53:13.788Z,95880.00
2019-04-05T10:55:40.781Z,95881.81
2019-04-05T10:58:07.738Z,95887.91
2019-04-05T11:00:34.694Z,95893.09
2019-04-05T11:03:02.144Z,95888.58
2019-04-05T11:05:29.560Z,95889.20
2019-04-05T11:07:56.960Z,95886.13
2019-04-05T11:10:24.425Z,95883.51
2019-04-05T11:12:51.847Z,95887.61
2019-04-05T11:15:18.804Z,95874.77
2019-04-05T11:17:46.277Z,95868.19
2019-04-05T11:20:21.343Z,95867.97
2019-04-05T11:22:41.280Z,95866.66
2019-04-05T11:25:08.708Z,95860.73
2019-04-05T11:27:36.111Z,95857.26
2019-04-05T11:30:03.504Z,95861.20
2019-04-05T11:32:30.916Z,95858.53
2019-04-05T11:34:57.936Z,95856.88
2019-04-05T11:37:24.892Z,95852.50
2019-04-05T11:39:52.134Z,95849.73
2019-04-05T11:42:19.089Z,95848.85
2019-04-05T11:44:46.510Z,95844.90
2019-04-05T11:47:13.934Z,95843.59
2019-04-05T11:49:41.343Z,95844.56
2019-04-05T11:52:08.746Z,95838.70
2019-04-05T11:54:36.183Z,95841.20
2019-04-05T11:57:03.573Z,95842.89
2019-04-05T11:59:30.999Z,95842.93
2019-04-05T12:01:58.428Z,95843.17
2019-04-05T12:04:25.846Z,95839.91
2019-04-05T12:06:53.246Z,95838.19
2019-04-05T12:09:20.695Z,95828.56
2019-04-05T12:11:48.224Z,95826.44
2019-04-05T12:14:15.640Z,95835.48
2019-04-05T12:16:43.069Z,95822.08
2019-04-05T12:19:10.467Z,95822.92
2019-04-05T12:21:37.883Z,95826.70
2019-04-05T12:24:05.296Z,95820.47
2019-04-05T12:26:34.530Z,95828.58
2019-04-05T12:29:00.167Z,95832.02
2019-04-05T12:31:27.573Z,95823.62
2019-04-05T12:33:54.981Z,95822.00
2019-04-05T12:36:22.764Z,95819.85
2019-04-05T12:38:49.806Z,95819.94
2019-04-05T12:41:18.246Z,95823.95
2019-04-05T12:43:44.539Z,95814.84
2019-04-05T12:46:14.942Z,95814.96
2019-04-05T12:48:38.132Z,95811.46
2019-04-05T12:51:05.945Z,95814.06
2019-04-05T12:53:33.094Z,95811.59
2019-04-05T12:56:00.515Z,95801.98
2019-04-05T12:58:28.676Z,95797.91
2019-04-05T13:00:56.955Z,95793.82
2019-04-05T13:03:23.078Z,95793.05
2019-04-05T13:05:51.503Z,95794.25
2019-04-05T13:08:17.743Z,95791.64
2019-04-05T13:10:44.720Z,95785.58
2019-04-05T13:13:12.130Z,95784.25
2019-04-05T13:15:40.290Z,95781.97
2019-04-05T13:18:06.045Z,95774.13
2019-04-05T13:20:33.067Z,95773.15
2019-04-05T13:23:03.142Z,95766.86
2019-04-05T13:25:28.138Z,95768.25
2019-04-05T13:27:55.605Z,95765.05
2019-04-05T13:30:23.015Z,95764.73
2019-04-05T13:32:53.441Z,95766.06
2019-04-05T13:35:18.846Z,95771.28
2019-04-05T13:37:46.256Z,95766.66
2019-04-05T13:40:13.659Z,95775.34
2019-04-05T13:42:41.051Z,95761.27
2019-04-05T13:45:08.525Z,95767.41
2019-04-05T13:47:38.974Z,95761.63
2019-04-05T13:50:03.381Z,95755.14
2019-04-05T13:52:30.816Z,95748.59
2019-04-05T13:54:58.235Z,95752.66
2019-04-05T13:57:28.354Z,95749.34
2019-04-05T13:59:53.164Z,95746.02
2019-04-05T14:02:21.225Z,95753.75
2019-04-05T14:04:48.013Z,95750.24
2019-04-05T14:07:15.457Z,95743.17
2019-04-05T14:09:42.865Z,95736.50
2019-04-05T14:12:10.290Z,95729.34
2019-04-05T14:14:39.447Z,95729.59
2019-04-05T14:17:05.162Z,95731.33
2019-04-05T14:19:32.564Z,95732.37
2019-04-05T14:22:08.365Z,95735.17
2019-04-05T14:24:28.351Z,95734.06
2019-04-05T14:26:55.748Z,95734.73
2019-04-05T14:29:23.250Z,95726.84
2019-04-05T14:31:50.657Z,95729.22
2019-04-05T14:34:18.068Z,95726.22
2019-04-05T14:36:45.475Z,95725.46
2019-04-05T14:39:12.894Z,95724.68
2019-04-05T14:41:40.289Z,95723.61
2019-04-05T14:44:07.719Z,95722.14
2019-04-05T14:46:35.127Z,95729.92
2019-04-05T14:49:02.541Z,95717.21
2019-04-05T14:51:30.907Z,95723.99
2019-04-05T14:53:59.571Z,95715.78
2019-04-05T14:56:26.806Z,95718.39
2019-04-05T14:58:52.792Z,95704.41
2019-04-05T15:01:20.199Z,95701.05
2019-04-05T15:03:47.697Z,95700.13
2019-04-05T15:06:15.123Z,95704.19
2019-04-05T15:08:42.566Z,95690.91
2019-04-05T15:11:11.191Z,95697.95
2019-04-05T15:13:37.409Z,95694.32
2019-04-05T15:16:04.930Z,95694.58
2019-04-05T15:18:32.352Z,95690.44
2019-04-05T15:20:59.747Z,95698.03
2019-04-05T15:23:27.225Z,95691.77
2019-04-05T15:25:55.169Z,95693.65
2019-04-05T15:28:22.457Z,95689.33
2019-04-05T15:30:49.816Z,95700.73
2019-04-05T15:33:17.016Z,95693.46
2019-04-05T15:35:44.431Z,95690.00
2019-04-05T15:38:12.055Z,95697.67
2019-04-05T15:43:13.343Z,95687.03
2019-04-05T15:45:42.782Z,95688.45
2019-04-05T15:48:09.067Z,95688.51
2019-04-05T15:50:36.484Z,95691.05
2019-04-05T15:53:03.921Z,95681.89
2019-04-05T15:55:34.319Z,95682.14
2019-04-05T15:58:01.414Z,95688.66
2019-04-05T16:00:37.067Z,95691.02
2019-04-05T16:03:04.493Z,95690.43
2019-04-05T16:05:32.939Z,95685.55
2019-04-05T16:08:00.346Z,95686.71
2019-04-05T16:10:27.787Z,95683.83
2019-04-05T16:12:55.222Z,95677.96
2019-04-05T16:15:22.641Z,95678.24
2019-04-05T16:17:50.098Z,95663.03
2019-04-05T16:27:01.269Z,95687.30
2019-04-05T16:29:28.711Z,95689.44
2019-04-05T16:31:56.103Z,95692.41
2019-04-05T16:34:23.524Z,95691.77
2019-04-05T16:36:50.919Z,95689.13
2019-04-05T16:39:18.408Z,95684.52
2019-04-05T16:41:45.832Z,95686.05
2019-04-05T16:44:13.255Z,95695.26
2019-04-05T16:46:40.814Z,95698.15
2019-04-05T16:49:08.222Z,95696.41
2019-04-05T16:51:35.627Z,95686.20
2019-04-05T16:54:03.024Z,95686.57
2019-04-05T16:56:30.506Z,95690.84
2019-04-05T16:58:57.928Z,95691.39
2019-04-05T17:01:27.340Z,95698.64
2019-04-05T17:03:52.860Z,95697.00
2019-04-05T17:06:20.286Z,95705.43
2019-04-05T17:08:47.674Z,95695.27
2019-04-05T17:11:15.186Z,95693.52
2019-04-05T17:13:42.614Z,95696.77
2019-04-05T17:16:10.113Z,95694.52
2019-04-05T17:18:37.522Z,95697.22
2019-04-05T17:21:04.981Z,95696.20
2019-04-05T17:23:33.248Z,95700.30
2019-04-05T17:25:59.899Z,95713.59
2019-04-05T17:28:27.308Z,95717.53
2019-04-05T17:30:54.748Z,95711.42
2019-04-05T17:33:22.539Z,95712.33
2019-04-05T17:35:49.967Z,95711.11
2019-04-05T17:38:17.367Z,95711.27
2019-04-05T17:40:44.789Z,95712.70
2019-04-05T17:43:12.194Z,95713.14
2019-04-05T17:45:39.796Z,95712.58
2019-04-05T17:48:07.193Z,95716.98
2019-04-05T17:50:34.592Z,95719.58
2019-04-05T17:53:12.177Z,95715.27
2019-04-05T17:55:29.426Z,95724.44
2019-04-05T17:57:56.835Z,95720.36
2019-04-05T18:00:24.245Z,95721.42
2019-04-05T18:02:51.641Z,95720.19
2019-04-05T18:05:19.064Z,95726.47
2019-04-05T18:07:46.498Z,95721.69
2019-04-05T18:10:14.144Z,95727.20
2019-04-05T18:12:41.587Z,95730.51
2019-04-05T18:15:09.016Z,95727.90
2019-04-05T18:17:36.652Z,95727.25
2019-04-05T18:20:04.710Z,95728.47
2019-04-05T18:22:32.151Z,95727.75
2019-04-05T18:24:59.594Z,95726.96
2019-04-05T18:27:27.029Z,95732.61
2019-04-05T18:29:55.439Z,95745.94
2019-04-05T18:32:22.851Z,95753.36
2019-04-05T18:34:50.238Z,95746.01
2019-04-05T18:37:17.655Z,95756.20
2019-04-05T18:39:45.061Z,95760.30
2019-04-05T18:42:12.459Z,95768.44
2019-04-05T18:44:39.879Z,95768.95
2019-04-05T18:47:07.273Z,95767.72
2019-04-05T18:49:34.667Z,95778.20
2019-04-05T18:52:02.065Z,95781.77
2019-04-05T18:54:29.502Z,95784.75
2019-04-05T18:56:56.958Z,95789.15
2019-04-05T18:59:24.419Z,95796.30
2019-04-05T19:01:52.247Z,95800.14
2019-04-05T19:04:19.636Z,95798.70
2019-04-05T19:06:47.046Z,95797.50
2019-04-05T19:09:14.467Z,95794.48
2019-04-05T19:11:41.946Z,95796.16
2019-04-05T19:14:09.396Z,95805.84
2019-04-05T19:16:36.828Z,95807.94
2019-04-05T19:19:04.252Z,95808.80
2019-04-05T19:21:31.665Z,95817.97
2019-04-05T19:23:59.068Z,95824.38
2019-04-05T19:26:26.479Z,95822.73
2019-04-05T19:28:53.908Z,95831.77
2019-04-05T19:48:35.376Z,95836.14
2019-04-05T19:51:01.252Z,95834.05
2019-04-05T19:53:28.670Z,95840.13
2019-04-05T19:55:56.265Z,95853.24
2019-04-05T19:58:23.772Z,95839.98
2019-04-05T20:00:51.577Z,95844.58
2019-04-05T20:03:19.023Z,95854.16
2019-04-05T20:05:46.548Z,95860.77
2019-04-05T20:08:14.068Z,95863.55
2019-04-05T20:10:41.520Z,95864.41
2019-04-05T20:13:08.971Z,95866.09
2019-04-05T20:15:36.832Z,95871.70
2019-04-05T20:18:04.297Z,95868.66
2019-04-05T20:20:31.946Z,95875.31
2019-04-05T20:22:59.696Z,95871.81
2019-04-05T20:28:00.935Z,95869.53
2019-04-05T20:30:29.549Z,95875.77
2019-04-05T20:32:56.975Z,95877.75
2019-04-05T20:35:24.429Z,95883.86
2019-04-05T20:37:52.343Z,95881.55
2019-04-05T20:40:19.813Z,95882.50
2019-04-05T20:42:47.441Z,95884.39
2019-04-05T20:45:14.932Z,95889.09
2019-04-05T20:47:42.380Z,95891.50
2019-04-05T20:50:09.807Z,95896.14
2019-04-05T20:52:37.219Z,95896.98
2019-04-05T20:55:05.321Z,95891.90
2019-04-05T20:57:32.739Z,95892.98
2019-04-05T21:00:00.136Z,95894.35
2019-04-05T21:02:27.530Z,95897.95
2019-04-05T21:04:54.956Z,95901.86
2019-04-05T21:07:22.399Z,95905.92
2019-04-05T21:09:49.916Z,95903.16
2019-04-05T21:12:17.278Z,95910.40
2019-04-05T21:14:44.691Z,95907.31
2019-04-05T21:17:12.086Z,95905.50
2019-04-05T21:19:39.512Z,95910.27
2019-04-05T21:22:06.926Z,95919.80
2019-04-05T21:24:36.236Z,95919.22
2019-04-05T21:27:01.767Z,95918.80
2019-04-05T21:29:29.893Z,95917.80
2019-04-05T21:31:57.328Z,95918.52
2019-04-05T21:34:24.747Z,95911.98
2019-04-05T21:36:52.203Z,95905.30
2019-04-05T21:39:19.665Z,95908.83
2019-04-05T21:41:47.068Z,95913.89
2019-04-05T21:44:14.532Z,95917.51
2019-04-05T21:46:41.935Z,95911.88
2019-04-05T21:49:09.351Z,95911.88
2019-04-05T21:51:36.779Z,95913.44
2019-04-05T21:54:04.356Z,95906.23
2019-04-05T21:56:31.770Z,95910.86
2019-04-05T21:58:59.283Z,95915.19
2019-04-05T22:01:26.735Z,95919.57
2019-04-05T22:03:54.129Z,95914.36
2019-04-05T22:06:21.615Z,95913.69
2019-04-05T22:08:49.006Z,95912.13
2019-04-05T22:11:16.451Z,95911.47
2019-04-05T22:13:43.853Z,95906.00
2019-04-05T22:16:11.270Z,95906.52
2019-04-05T22:18:38.724Z,95905.40
2019-04-05T22:21:06.276Z,95904.51
2019-04-05T22:23:33.659Z,95909.47
2019-04-05T22:26:01.068Z,95910.95
2019-04-05T22:28:28.550Z,95911.05
2019-04-05T22:30:55.891Z,95913.88
2019-04-05T22:33:23.289Z,95911.09
2019-04-05T22:35:50.694Z,95911.53
2019-04-05T22:38:18.115Z,95912.67
2019-04-05T22:40:46.495Z,95920.20
2019-04-05T22:43:13.920Z,95921.77
2019-04-05T22:45:41.339Z,95920.30
2019-04-05T22:48:08.733Z,95914.74
2019-04-05T22:50:36.159Z,95920.53
2019-04-05T22:53:04.224Z,95909.78
2019-04-05T22:55:31.623Z,95910.16
2019-04-05T22:57:59.033Z,95913.53
2019-04-05T23:00:26.411Z,95923.54
2019-04-05T23:02:53.831Z,95913.34
2019-04-05T23:05:21.239Z,95920.27
2019-04-05T23:07:48.722Z,95916.01
2019-04-05T23:10:16.159Z,95925.22
2019-04-05T23:12:43.540Z,95929.23
2019-04-05T23:15:11.011Z,95923.76
2019-04-05T23:17:38.436Z,95918.91
2019-04-05T23:20:05.826Z,95925.73
2019-04-05T23:22:33.231Z,95919.45
2019-04-05T23:25:00.637Z,95916.03
2019-04-05T23:27:28.041Z,95927.25
2019-04-05T23:29:55.446Z,95922.31
2019-04-05T23:32:22.964Z,95914.38
2019-04-05T23:34:50.359Z,95917.80
2019-04-05T23:37:17.833Z,95923.02
2019-04-05T23:39:45.225Z,95922.95
2019-04-05T23:42:12.737Z,95928.23
2019-04-05T23:44:40.124Z,95928.91
2019-04-05T23:47:07.564Z,95923.78
2019-04-05T23:49:35.778Z,95919.38
2019-04-05T23:52:03.189Z,95927.12
2019-04-05T23:54:30.670Z,95924.11
2019-04-05T23:56:58.419Z,95923.58
2019-04-05T23:59:25.844Z,95925.19
